Time;durP1;ratioP1;P1;durP2;ratioP2;P2;SDS_P1;SDS_P2;PMS_P1;PMS_P2;Temp;Humidity;BMP_temperature;BMP_pressure;BME280_temperature;BME280_humidity;BME280_pressure;Samples;Min_cycle;Max_cycle;Signal;HPM_P1;HPM_P2
2022/08/29 08:14:16;;;;;;;10.27;4.00;;;18.80;95.60;;;;;;1856549;75;27947;-83
2022/08/29 08:16:44;;;;;;;8.57;3.80;;;19.70;87.70;;;;;;1868433;76;26988;-83
2022/08/29 08:19:19;;;;;;;9.13;3.83;;;20.00;79.40;;;;;;1833581;77;27008;-88
2022/08/29 08:21:50;;;;;;;8.20;3.43;;;20.20;71.70;;;;;;1823774;77;27110;-83
2022/08/29 08:24:21;;;;;;;7.70;3.47;;;20.20;65.60;;;;;;1819488;77;26951;-84
2022/08/29 08:26:49;;;;;;;6.43;3.47;;;20.30;61.40;;;;;;1806391;78;27102;-83
2022/08/29 08:29:18;;;;;;;7.10;3.93;;;20.40;56.80;;;;;;1808806;77;27395;-83
2022/08/29 08:31:48;;;;;;;7.80;3.83;;;20.50;51.50;;;;;;1800387;78;27036;-81
2022/08/29 08:34:17;;;;;;;6.70;4.00;;;20.30;47.70;;;;;;1807617;78;27091;-84
2022/08/29 08:36:45;;;;;;;7.40;4.23;;;20.50;47.40;;;;;;1799965;78;27094;-81
2022/08/29 08:39:14;;;;;;;5.80;4.37;;;20.40;44.90;;;;;;1800154;78;27087;-83
2022/08/29 08:42:04;;;;;;;10.80;3.73;;;20.30;44.30;;;;;;1796343;78;27036;-85
2022/08/29 08:44:54;;;;;;;11.70;5.17;;;20.20;41.90;;;;;;1804386;78;27088;-85
2022/08/29 08:47:28;;;;;;;6.27;4.13;;;20.10;42.30;;;;;;1802525;78;27014;-86
2022/08/29 08:50:11;;;;;;;5.30;3.20;;;20.30;40.70;;;;;;1798617;78;26989;-84
2022/08/29 08:52:43;;;;;;;7.63;3.70;;;20.30;41.00;;;;;;1804396;77;27072;-83
2022/08/29 08:55:30;;;;;;;9.10;4.03;;;20.50;39.80;;;;;;1806696;77;27080;-87
2022/08/29 08:58:04;;;;;;;5.60;3.50;;;20.60;39.80;;;;;;1800939;77;27046;-82
2022/08/29 09:00:35;;;;;;;9.90;4.47;;;20.80;36.10;;;;;;1807329;78;27099;-83
2022/08/29 09:03:06;;;;;;;7.07;3.73;;;20.80;34.00;;;;;;1829832;77;27100;-85
2022/08/29 09:05:53;;;;;;;11.57;3.77;;;20.80;33.30;;;;;;1819423;76;27348;-84
2022/08/29 09:08:41;;;;;;;5.73;2.90;;;21.00;31.50;;;;;;1798725;77;27050;-83
2022/08/29 09:11:32;;;;;;;6.20;2.97;;;20.90;30.00;;;;;;1861152;75;26983;-83
2022/08/29 09:14:11;;;;;;;5.40;2.60;;;21.00;30.00;;;;;;1869662;76;27090;-85
2022/08/29 09:16:42;;;;;;;5.50;2.90;;;21.10;29.30;;;;;;1857219;76;27027;-84
2022/08/29 09:19:15;;;;;;;9.53;3.13;;;21.30;27.80;;;;;;1866887;75;27082;-84
2022/08/29 09:21:55;;;;;;;6.37;2.80;;;21.40;26.30;;;;;;1872219;75;26957;-86
2022/08/29 09:24:45;;;;;;;5.67;3.30;;;21.50;26.00;;;;;;1859795;76;27082;-86
2022/08/29 09:27:25;;;;;;;6.30;3.10;;;22.00;23.40;;;;;;1873487;76;27116;-86
2022/08/29 09:30:07;;;;;;;7.33;3.00;;;22.10;22.70;;;;;;1866714;76;27058;-84
2022/08/29 09:32:41;;;;;;;7.87;2.80;;;22.60;21.10;;;;;;1867323;75;27323;-86
2022/08/29 09:35:23;;;;;;;6.07;3.30;;;24.00;15.70;;;;;;1860144;76;27089;-86
2022/08/29 09:38:00;;;;;;;5.83;3.57;;;26.00;5.80;;;;;;1863536;75;27020;-89
2022/08/29 09:40:47;;;;;;;11.07;3.40;;;27.90;1.00;;;;;;1869441;75;27083;-85
2022/08/29 09:43:19;;;;;;;7.30;3.97;;;29.20;1.00;;;;;;1854152;75;27254;-86
2022/08/29 09:46:22;;;;;;;8.37;3.30;;;29.90;1.00;;;;;;1864079;75;27017;-84
2022/08/29 09:48:59;;;;;;;9.13;3.43;;;29.70;1.00;;;;;;1863600;75;27001;-82
2022/08/29 09:51:35;;;;;;;8.23;3.53;;;29.00;1.00;;;;;;1846201;76;27117;-84
2022/08/29 09:54:30;;;;;;;16.73;4.83;;;28.00;1.00;;;;;;1865577;76;28100;-85
2022/08/29 09:57:09;;;;;;;9.63;4.13;;;27.40;1.00;;;;;;1861944;76;27017;-85
2022/08/29 09:59:40;;;;;;;11.00;4.17;;;26.80;1.00;;;;;;1866016;75;26957;-86
2022/08/29 10:02:29;;;;;;;6.07;3.60;;;26.40;1.00;;;;;;1868402;75;27465;-87
2022/08/29 10:05:04;;;;;;;7.77;3.87;;;26.40;1.00;;;;;;1855275;76;27013;-84
2022/08/29 10:07:37;;;;;;;5.50;3.50;;;25.90;1.00;;;;;;1866317;76;27016;-84
2022/08/29 10:10:08;;;;;;;5.67;3.03;;;26.00;1.00;;;;;;1860775;75;27062;-85
2022/08/29 10:12:41;;;;;;;8.90;4.00;;;27.30;1.00;;;;;;1872788;75;27034;-84
2022/08/29 10:15:14;;;;;;;8.30;4.20;;;28.60;1.00;;;;;;1869066;76;26919;-86
2022/08/29 10:18:26;;;;;;;7.60;3.70;;;29.50;1.00;;;;;;1864645;75;27071;-84
2022/08/29 10:21:19;;;;;;;5.30;3.10;;;30.00;1.00;;;;;;1828167;75;27061;-89
2022/08/29 10:24:02;;;;;;;4.93;2.90;;;30.90;1.00;;;;;;1860281;75;26998;-84
2022/08/29 10:26:44;;;;;;;9.20;3.60;;;31.70;1.00;;;;;;1864419;76;27075;-84
2022/08/29 10:29:35;;;;;;;6.40;3.30;;;32.00;1.00;;;;;;1870912;76;27415;-82
2022/08/29 10:32:24;;;;;;;8.30;3.93;;;32.30;1.00;;;;;;1840584;76;27130;-81
2022/08/29 10:35:28;;;;;;;9.80;3.83;;;31.60;1.00;;;;;;1846275;76;27109;-84
2022/08/29 10:38:01;;;;;;;7.70;3.50;;;31.40;1.00;;;;;;1867621;76;27100;-82
2022/08/29 10:40:47;;;;;;;6.70;3.80;;;31.10;1.00;;;;;;1867253;76;26949;-79
2022/08/29 10:43:27;;;;;;;9.30;3.57;;;31.40;1.00;;;;;;1868548;76;27530;-84
2022/08/29 10:46:07;;;;;;;5.00;3.33;;;32.10;1.00;;;;;;1860197;76;27064;-82
2022/08/29 10:48:44;;;;;;;6.53;3.23;;;33.10;1.00;;;;;;1865011;76;27065;-81
2022/08/29 10:51:15;;;;;;;3.97;2.60;;;32.70;1.00;;;;;;1854616;76;27396;-84
2022/08/29 10:53:50;;;;;;;12.53;5.17;;;30.10;1.00;;;;;;1858628;75;27591;-81
2022/08/29 10:56:23;;;;;;;9.23;3.77;;;30.70;1.00;;;;;;1859702;76;27374;-80
2022/08/29 10:59:11;;;;;;;8.17;3.63;;;30.10;1.00;;;;;;1858969;76;27440;-84
2022/08/29 11:01:44;;;;;;;9.87;4.30;;;30.00;1.00;;;;;;1870915;76;26964;-85
2022/08/29 11:04:18;;;;;;;6.87;3.90;;;29.70;1.00;;;;;;1865130;76;27087;-82
2022/08/29 11:06:52;;;;;;;6.50;3.90;;;29.90;1.00;;;;;;1874536;75;27052;-83
2022/08/29 11:09:37;;;;;;;6.10;3.70;;;30.30;1.00;;;;;;1864546;76;27035;-81
2022/08/29 11:12:29;;;;;;;7.30;3.90;;;30.20;1.00;;;;;;1857536;76;27482;-85
2022/08/29 11:15:20;;;;;;;9.40;4.40;;;30.60;1.00;;;;;;1865015;75;27020;-82
2022/08/29 11:17:57;;;;;;;6.03;4.27;;;31.20;1.00;;;;;;1852530;76;27516;-82
2022/08/29 11:20:27;;;;;;;5.80;3.93;;;31.40;1.00;;;;;;1836666;75;27344;-83
2022/08/29 11:23:00;;;;;;;8.13;3.93;;;31.50;1.00;;;;;;1870660;76;27461;-81
2022/08/29 11:25:31;;;;;;;15.60;3.93;;;31.80;1.00;;;;;;1849404;76;27050;-85
2022/08/29 11:28:08;;;;;;;7.20;4.50;;;31.60;1.00;;;;;;1869205;76;27040;-81
2022/08/29 11:30:50;;;;;;;7.20;3.83;;;31.80;1.00;;;;;;1848195;76;27010;-81
2022/08/29 11:33:40;;;;;;;8.93;4.50;;;29.70;1.00;;;;;;1860799;75;26971;-86
2022/08/29 11:36:27;;;;;;;7.53;4.70;;;27.90;1.00;;;;;;1870955;76;26947;-85
2022/08/29 11:39:14;;;;;;;11.63;4.23;;;27.90;1.00;;;;;;1864590;75;26901;-84
2022/08/29 11:41:44;;;;;;;8.00;3.93;;;29.10;1.00;;;;;;1865464;75;26995;-85
2022/08/29 11:44:31;;;;;;;7.00;4.20;;;29.30;1.00;;;;;;1862310;75;27073;-84
2022/08/29 11:46:59;;;;;;;8.10;3.93;;;30.30;1.00;;;;;;1860507;76;27059;-85
2022/08/29 11:49:37;;;;;;;7.37;4.40;;;31.70;1.00;;;;;;1865391;76;27059;-85
2022/08/29 11:52:13;;;;;;;8.50;4.63;;;32.80;1.00;;;;;;1863829;76;26948;-86
2022/08/29 11:54:47;;;;;;;7.87;5.00;;;33.90;1.00;;;;;;1839531;75;28572;-83
2022/08/29 11:57:18;;;;;;;7.20;4.67;;;34.40;1.00;;;;;;1864204;75;27522;-84
2022/08/29 11:59:48;;;;;;;8.50;4.93;;;34.90;1.00;;;;;;1864325;75;27001;-86
2022/08/29 12:05:13;;;;;;;6.80;3.63;;;34.50;1.00;;;;;;1837443;72;27495;-84
2022/08/29 12:13:00;;;;;;;8.90;4.53;;;33.00;1.00;;;;;;1867625;72;27087;-87
2022/08/29 12:21:26;;;;;;;9.60;4.07;;;32.70;1.00;;;;;;1888641;72;27342;-87
